sensor_id;sensor_type;location;lat;lon;timestamp;P1;durP1;ratioP1;P2;durP2;ratioP2
77800;SDS011;66991;50.058;14.454;2024-01-11T00:01:09;24.55;;;11.98;;
77800;SDS011;66991;50.058;14.454;2024-01-11T00:03:35;21.25;;;12.02;;
77800;SDS011;66991;50.058;14.454;2024-01-11T00:06:00;22.10;;;11.77;;
77800;SDS011;66991;50.058;14.454;2024-01-11T00:08:26;25.55;;;12.15;;
77800;SDS011;66991;50.058;14.454;2024-01-11T00:10:51;25.80;;;11.10;;
77800;SDS011;66991;50.058;14.454;2024-01-11T00:13:16;19.60;;;9.70;;
77800;SDS011;66991;50.058;14.454;2024-01-11T00:15:42;25.88;;;11.63;;
77800;SDS011;66991;50.058;14.454;2024-01-11T00:18:07;24.20;;;11.50;;
77800;SDS011;66991;50.058;14.454;2024-01-11T00:20:32;16.90;;;11.25;;
77800;SDS011;66991;50.058;14.454;2024-01-11T00:22:58;23.42;;;11.80;;
77800;SDS011;66991;50.058;14.454;2024-01-11T00:25:23;23.73;;;12.15;;
77800;SDS011;66991;50.058;14.454;2024-01-11T00:27:48;18.15;;;11.13;;
77800;SDS011;66991;50.058;14.454;2024-01-11T00:30:14;24.90;;;11.07;;
77800;SDS011;66991;50.058;14.454;2024-01-11T00:32:39;23.85;;;13.55;;
77800;SDS011;66991;50.058;14.454;2024-01-11T00:35:05;21.67;;;9.63;;
77800;SDS011;66991;50.058;14.454;2024-01-11T00:37:30;22.90;;;12.60;;
77800;SDS011;66991;50.058;14.454;2024-01-11T00:39:56;22.08;;;11.43;;
77800;SDS011;66991;50.058;14.454;2024-01-11T00:42:21;25.98;;;12.82;;
77800;SDS011;66991;50.058;14.454;2024-01-11T00:44:46;24.38;;;12.13;;
77800;SDS011;66991;50.058;14.454;2024-01-11T00:47:12;19.60;;;10.88;;
77800;SDS011;66991;50.058;14.454;2024-01-11T00:49:37;27.63;;;12.25;;
77800;SDS011;66991;50.058;14.454;2024-01-11T00:52:03;23.23;;;11.98;;
77800;SDS011;66991;50.058;14.454;2024-01-11T00:54:28;23.95;;;11.70;;
77800;SDS011;66991;50.058;14.454;2024-01-11T00:56:53;33.67;;;13.80;;
77800;SDS011;66991;50.058;14.454;2024-01-11T00:59:19;24.92;;;12.07;;
77800;SDS011;66991;50.058;14.454;2024-01-11T01:01:47;23.65;;;11.77;;
77800;SDS011;66991;50.058;14.454;2024-01-11T01:04:13;30.73;;;11.00;;
77800;SDS011;66991;50.058;14.454;2024-01-11T01:06:39;21.88;;;11.57;;
77800;SDS011;66991;50.058;14.454;2024-01-11T01:09:04;23.98;;;13.32;;
77800;SDS011;66991;50.058;14.454;2024-01-11T01:11:29;24.80;;;11.15;;
77800;SDS011;66991;50.058;14.454;2024-01-11T01:13:55;23.73;;;11.85;;
77800;SDS011;66991;50.058;14.454;2024-01-11T01:16:20;39.05;;;13.68;;
77800;SDS011;66991;50.058;14.454;2024-01-11T01:18:45;23.60;;;12.48;;
77800;SDS011;66991;50.058;14.454;2024-01-11T01:21:11;25.25;;;11.85;;
77800;SDS011;66991;50.058;14.454;2024-01-11T01:23:36;23.00;;;12.30;;
77800;SDS011;66991;50.058;14.454;2024-01-11T01:26:01;28.50;;;12.10;;
77800;SDS011;66991;50.058;14.454;2024-01-11T01:28:27;19.17;;;12.50;;
77800;SDS011;66991;50.058;14.454;2024-01-11T01:30:52;27.92;;;12.13;;
77800;SDS011;66991;50.058;14.454;2024-01-11T01:33:17;23.73;;;11.30;;
77800;SDS011;66991;50.058;14.454;2024-01-11T01:35:43;17.95;;;10.48;;
77800;SDS011;66991;50.058;14.454;2024-01-11T01:38:08;29.20;;;10.77;;
77800;SDS011;66991;50.058;14.454;2024-01-11T01:40:33;25.13;;;12.05;;
77800;SDS011;66991;50.058;14.454;2024-01-11T01:42:59;24.65;;;13.02;;
77800;SDS011;66991;50.058;14.454;2024-01-11T01:45:27;14.07;;;9.52;;
77800;SDS011;66991;50.058;14.454;2024-01-11T01:47:52;26.65;;;12.43;;
77800;SDS011;66991;50.058;14.454;2024-01-11T01:50:18;26.48;;;14.05;;
77800;SDS011;66991;50.058;14.454;2024-01-11T01:52:45;25.60;;;13.48;;
77800;SDS011;66991;50.058;14.454;2024-01-11T01:55:11;24.38;;;8.63;;
77800;SDS011;66991;50.058;14.454;2024-01-11T01:57:37;30.95;;;12.57;;
77800;SDS011;66991;50.058;14.454;2024-01-11T02:00:03;19.30;;;10.93;;
77800;SDS011;66991;50.058;14.454;2024-01-11T02:02:30;27.23;;;12.27;;
77800;SDS011;66991;50.058;14.454;2024-01-11T02:04:56;18.60;;;10.27;;
77800;SDS011;66991;50.058;14.454;2024-01-11T02:07:22;24.40;;;12.02;;
77800;SDS011;66991;50.058;14.454;2024-01-11T02:09:48;32.38;;;15.90;;
77800;SDS011;66991;50.058;14.454;2024-01-11T02:12:14;17.33;;;9.73;;
77800;SDS011;66991;50.058;14.454;2024-01-11T02:14:40;34.80;;;11.38;;
77800;SDS011;66991;50.058;14.454;2024-01-11T02:17:05;27.80;;;10.75;;
77800;SDS011;66991;50.058;14.454;2024-01-11T02:19:31;21.08;;;11.43;;
77800;SDS011;66991;50.058;14.454;2024-01-11T02:21:59;26.98;;;11.82;;
77800;SDS011;66991;50.058;14.454;2024-01-11T02:24:29;20.90;;;11.32;;
77800;SDS011;66991;50.058;14.454;2024-01-11T02:26:58;20.58;;;10.35;;
77800;SDS011;66991;50.058;14.454;2024-01-11T02:29:27;18.13;;;11.25;;
77800;SDS011;66991;50.058;14.454;2024-01-11T02:31:53;17.75;;;11.98;;
77800;SDS011;66991;50.058;14.454;2024-01-11T02:34:19;30.80;;;12.20;;
77800;SDS011;66991;50.058;14.454;2024-01-11T02:36:45;31.25;;;12.57;;
77800;SDS011;66991;50.058;14.454;2024-01-11T02:39:10;21.67;;;9.48;;
77800;SDS011;66991;50.058;14.454;2024-01-11T02:41:37;22.80;;;9.20;;
77800;SDS011;66991;50.058;14.454;2024-01-11T02:44:02;20.48;;;11.25;;
77800;SDS011;66991;50.058;14.454;2024-01-11T02:46:27;20.13;;;9.43;;
77800;SDS011;66991;50.058;14.454;2024-01-11T02:48:53;25.17;;;10.18;;
77800;SDS011;66991;50.058;14.454;2024-01-11T02:51:18;18.20;;;10.77;;
77800;SDS011;66991;50.058;14.454;2024-01-11T02:53:43;26.33;;;11.38;;
77800;SDS011;66991;50.058;14.454;2024-01-11T02:56:09;25.83;;;13.23;;
77800;SDS011;66991;50.058;14.454;2024-01-11T02:58:34;26.85;;;13.27;;
77800;SDS011;66991;50.058;14.454;2024-01-11T03:00:59;18.58;;;10.40;;
77800;SDS011;66991;50.058;14.454;2024-01-11T03:03:25;29.83;;;13.27;;
77800;SDS011;66991;50.058;14.454;2024-01-11T03:05:50;25.90;;;10.65;;
77800;SDS011;66991;50.058;14.454;2024-01-11T03:08:15;20.17;;;10.05;;
77800;SDS011;66991;50.058;14.454;2024-01-11T03:10:41;27.10;;;13.15;;
77800;SDS011;66991;50.058;14.454;2024-01-11T03:13:06;21.50;;;9.05;;
77800;SDS011;66991;50.058;14.454;2024-01-11T03:15:32;28.70;;;10.38;;
77800;SDS011;66991;50.058;14.454;2024-01-11T03:17:58;23.50;;;9.63;;
77800;SDS011;66991;50.058;14.454;2024-01-11T03:20:23;28.02;;;12.32;;
77800;SDS011;66991;50.058;14.454;2024-01-11T03:22:50;16.10;;;10.35;;
77800;SDS011;66991;50.058;14.454;2024-01-11T03:25:16;27.02;;;11.65;;
77800;SDS011;66991;50.058;14.454;2024-01-11T03:27:41;16.25;;;9.23;;
77800;SDS011;66991;50.058;14.454;2024-01-11T03:30:07;31.38;;;13.65;;
77800;SDS011;66991;50.058;14.454;2024-01-11T03:32:32;24.13;;;12.10;;
77800;SDS011;66991;50.058;14.454;2024-01-11T03:34:58;24.02;;;10.60;;
77800;SDS011;66991;50.058;14.454;2024-01-11T03:37:23;22.50;;;12.10;;
77800;SDS011;66991;50.058;14.454;2024-01-11T03:39:48;15.88;;;9.93;;
77800;SDS011;66991;50.058;14.454;2024-01-11T03:42:14;22.60;;;10.20;;
77800;SDS011;66991;50.058;14.454;2024-01-11T03:44:39;24.75;;;12.20;;
77800;SDS011;66991;50.058;14.454;2024-01-11T03:47:04;18.08;;;11.90;;
77800;SDS011;66991;50.058;14.454;2024-01-11T03:49:30;21.55;;;10.13;;
77800;SDS011;66991;50.058;14.454;2024-01-11T03:51:55;23.55;;;11.23;;
77800;SDS011;66991;50.058;14.454;2024-01-11T03:54:20;22.35;;;10.25;;
77800;SDS011;66991;50.058;14.454;2024-01-11T03:56:45;30.05;;;13.48;;
77800;SDS011;66991;50.058;14.454;2024-01-11T03:59:11;18.55;;;9.57;;
77800;SDS011;66991;50.058;14.454;2024-01-11T04:01:42;27.98;;;13.45;;
77800;SDS011;66991;50.058;14.454;2024-01-11T04:04:08;21.75;;;12.75;;
77800;SDS011;66991;50.058;14.454;2024-01-11T04:06:33;21.63;;;10.27;;
77800;SDS011;66991;50.058;14.454;2024-01-11T04:08:59;19.27;;;11.32;;
77800;SDS011;66991;50.058;14.454;2024-01-11T04:11:27;27.80;;;9.38;;
77800;SDS011;66991;50.058;14.454;2024-01-11T04:13:53;24.67;;;12.48;;
77800;SDS011;66991;50.058;14.454;2024-01-11T04:16:19;18.20;;;10.40;;
77800;SDS011;66991;50.058;14.454;2024-01-11T04:18:45;15.75;;;9.00;;
77800;SDS011;66991;50.058;14.454;2024-01-11T04:24:05;18.58;;;8.95;;
77800;SDS011;66991;50.058;14.454;2024-01-11T04:26:31;22.45;;;11.93;;
77800;SDS011;66991;50.058;14.454;2024-01-11T04:28:57;18.75;;;10.23;;
77800;SDS011;66991;50.058;14.454;2024-01-11T04:31:24;16.05;;;9.73;;
77800;SDS011;66991;50.058;14.454;2024-01-11T04:33:50;29.35;;;10.48;;
77800;SDS011;66991;50.058;14.454;2024-01-11T04:36:15;29.70;;;12.30;;
77800;SDS011;66991;50.058;14.454;2024-01-11T04:38:41;24.83;;;13.57;;
77800;SDS011;66991;50.058;14.454;2024-01-11T04:41:09;18.48;;;10.30;;
77800;SDS011;66991;50.058;14.454;2024-01-11T04:43:42;17.88;;;10.88;;
77800;SDS011;66991;50.058;14.454;2024-01-11T04:46:14;19.02;;;10.23;;
77800;SDS011;66991;50.058;14.454;2024-01-11T04:48:40;20.65;;;11.23;;
77800;SDS011;66991;50.058;14.454;2024-01-11T04:51:05;30.70;;;13.68;;
77800;SDS011;66991;50.058;14.454;2024-01-11T04:53:30;18.58;;;10.10;;
77800;SDS011;66991;50.058;14.454;2024-01-11T04:55:56;24.52;;;10.73;;
77800;SDS011;66991;50.058;14.454;2024-01-11T04:58:21;30.58;;;11.43;;
77800;SDS011;66991;50.058;14.454;2024-01-11T05:00:46;18.38;;;11.60;;
77800;SDS011;66991;50.058;14.454;2024-01-11T05:03:12;17.88;;;10.38;;
77800;SDS011;66991;50.058;14.454;2024-01-11T05:05:37;21.58;;;11.55;;
77800;SDS011;66991;50.058;14.454;2024-01-11T05:08:02;25.00;;;10.15;;
77800;SDS011;66991;50.058;14.454;2024-01-11T05:10:28;31.90;;;9.75;;
77800;SDS011;66991;50.058;14.454;2024-01-11T05:12:53;24.10;;;10.82;;
77800;SDS011;66991;50.058;14.454;2024-01-11T05:15:19;25.10;;;11.45;;
77800;SDS011;66991;50.058;14.454;2024-01-11T05:17:44;24.15;;;14.30;;
77800;SDS011;66991;50.058;14.454;2024-01-11T05:20:09;16.63;;;12.75;;
77800;SDS011;66991;50.058;14.454;2024-01-11T05:22:35;23.92;;;14.50;;
77800;SDS011;66991;50.058;14.454;2024-01-11T05:25:01;29.88;;;16.00;;
77800;SDS011;66991;50.058;14.454;2024-01-11T05:27:26;21.42;;;10.95;;
77800;SDS011;66991;50.058;14.454;2024-01-11T05:29:52;24.77;;;12.82;;
77800;SDS011;66991;50.058;14.454;2024-01-11T05:32:17;24.70;;;12.52;;
77800;SDS011;66991;50.058;14.454;2024-01-11T05:34:42;15.85;;;11.38;;
77800;SDS011;66991;50.058;14.454;2024-01-11T05:37:08;32.03;;;13.07;;
77800;SDS011;66991;50.058;14.454;2024-01-11T05:39:33;25.73;;;9.85;;
77800;SDS011;66991;50.058;14.454;2024-01-11T05:41:58;29.60;;;11.30;;
77800;SDS011;66991;50.058;14.454;2024-01-11T05:44:24;23.48;;;10.95;;
77800;SDS011;66991;50.058;14.454;2024-01-11T05:46:49;22.48;;;10.20;;
77800;SDS011;66991;50.058;14.454;2024-01-11T05:49:14;20.83;;;10.80;;
77800;SDS011;66991;50.058;14.454;2024-01-11T05:51:40;25.00;;;12.75;;
77800;SDS011;66991;50.058;14.454;2024-01-11T05:54:05;18.83;;;10.85;;
77800;SDS011;66991;50.058;14.454;2024-01-11T05:56:30;30.73;;;11.15;;
77800;SDS011;66991;50.058;14.454;2024-01-11T05:58:56;19.10;;;13.25;;
77800;SDS011;66991;50.058;14.454;2024-01-11T06:01:21;31.20;;;13.55;;
77800;SDS011;66991;50.058;14.454;2024-01-11T06:03:47;20.08;;;11.35;;
77800;SDS011;66991;50.058;14.454;2024-01-11T06:06:12;29.35;;;11.85;;
77800;SDS011;66991;50.058;14.454;2024-01-11T06:08:38;24.08;;;9.50;;
77800;SDS011;66991;50.058;14.454;2024-01-11T06:11:04;23.23;;;12.23;;
77800;SDS011;66991;50.058;14.454;2024-01-11T06:13:29;24.05;;;10.10;;
77800;SDS011;66991;50.058;14.454;2024-01-11T06:15:54;15.75;;;8.52;;
77800;SDS011;66991;50.058;14.454;2024-01-11T06:18:20;19.17;;;10.45;;
77800;SDS011;66991;50.058;14.454;2024-01-11T06:20:45;21.40;;;9.85;;
77800;SDS011;66991;50.058;14.454;2024-01-11T06:23:10;16.15;;;9.57;;
77800;SDS011;66991;50.058;14.454;2024-01-11T06:25:36;21.17;;;10.18;;
77800;SDS011;66991;50.058;14.454;2024-01-11T06:28:03;23.75;;;11.38;;
77800;SDS011;66991;50.058;14.454;2024-01-11T06:30:29;23.20;;;10.45;;
77800;SDS011;66991;50.058;14.454;2024-01-11T06:32:54;24.17;;;11.10;;
77800;SDS011;66991;50.058;14.454;2024-01-11T06:35:19;18.75;;;10.73;;
77800;SDS011;66991;50.058;14.454;2024-01-11T06:37:45;25.60;;;10.88;;
77800;SDS011;66991;50.058;14.454;2024-01-11T06:40:10;12.05;;;7.63;;
77800;SDS011;66991;50.058;14.454;2024-01-11T06:42:36;23.90;;;9.18;;
77800;SDS011;66991;50.058;14.454;2024-01-11T06:45:01;16.88;;;9.23;;
77800;SDS011;66991;50.058;14.454;2024-01-11T06:47:28;20.52;;;10.85;;
77800;SDS011;66991;50.058;14.454;2024-01-11T06:49:53;14.38;;;7.65;;
77800;SDS011;66991;50.058;14.454;2024-01-11T06:52:19;14.57;;;8.75;;
77800;SDS011;66991;50.058;14.454;2024-01-11T06:54:44;23.70;;;11.18;;
77800;SDS011;66991;50.058;14.454;2024-01-11T06:57:10;19.00;;;8.10;;
77800;SDS011;66991;50.058;14.454;2024-01-11T06:59:35;21.05;;;9.38;;
77800;SDS011;66991;50.058;14.454;2024-01-11T07:02:00;18.60;;;7.60;;
77800;SDS011;66991;50.058;14.454;2024-01-11T07:04:26;18.38;;;8.82;;
77800;SDS011;66991;50.058;14.454;2024-01-11T07:06:51;15.85;;;8.70;;
77800;SDS011;66991;50.058;14.454;2024-01-11T07:09:16;13.50;;;8.98;;
77800;SDS011;66991;50.058;14.454;2024-01-11T07:11:42;20.10;;;11.45;;
77800;SDS011;66991;50.058;14.454;2024-01-11T07:14:09;28.23;;;11.68;;
77800;SDS011;66991;50.058;14.454;2024-01-11T07:16:34;16.77;;;9.68;;
77800;SDS011;66991;50.058;14.454;2024-01-11T07:19:00;18.10;;;10.15;;
77800;SDS011;66991;50.058;14.454;2024-01-11T07:21:25;17.83;;;8.70;;
77800;SDS011;66991;50.058;14.454;2024-01-11T07:23:58;20.95;;;9.15;;
77800;SDS011;66991;50.058;14.454;2024-01-11T07:26:23;24.13;;;11.10;;
77800;SDS011;66991;50.058;14.454;2024-01-11T07:28:49;23.08;;;9.27;;
77800;SDS011;66991;50.058;14.454;2024-01-11T07:31:15;21.50;;;10.00;;
77800;SDS011;66991;50.058;14.454;2024-01-11T07:33:41;21.40;;;10.20;;
77800;SDS011;66991;50.058;14.454;2024-01-11T07:36:06;24.10;;;11.50;;
77800;SDS011;66991;50.058;14.454;2024-01-11T07:38:31;18.88;;;9.70;;
77800;SDS011;66991;50.058;14.454;2024-01-11T07:40:57;21.35;;;11.23;;
77800;SDS011;66991;50.058;14.454;2024-01-11T07:43:22;11.77;;;6.80;;
77800;SDS011;66991;50.058;14.454;2024-01-11T07:45:48;16.42;;;10.27;;
77800;SDS011;66991;50.058;14.454;2024-01-11T07:48:13;13.75;;;9.00;;
77800;SDS011;66991;50.058;14.454;2024-01-11T07:50:38;20.10;;;11.45;;
77800;SDS011;66991;50.058;14.454;2024-01-11T07:53:04;18.27;;;12.00;;
77800;SDS011;66991;50.058;14.454;2024-01-11T07:55:30;23.17;;;11.15;;
77800;SDS011;66991;50.058;14.454;2024-01-11T07:57:56;21.88;;;8.82;;
77800;SDS011;66991;50.058;14.454;2024-01-11T08:00:21;23.73;;;11.73;;
77800;SDS011;66991;50.058;14.454;2024-01-11T08:02:47;16.98;;;8.55;;
77800;SDS011;66991;50.058;14.454;2024-01-11T08:05:12;25.52;;;10.48;;
77800;SDS011;66991;50.058;14.454;2024-01-11T08:07:37;20.05;;;10.27;;
77800;SDS011;66991;50.058;14.454;2024-01-11T08:10:03;22.02;;;12.00;;
77800;SDS011;66991;50.058;14.454;2024-01-11T08:12:29;20.27;;;11.07;;
77800;SDS011;66991;50.058;14.454;2024-01-11T08:14:54;14.52;;;8.20;;
77800;SDS011;66991;50.058;14.454;2024-01-11T08:17:21;16.42;;;11.80;;
77800;SDS011;66991;50.058;14.454;2024-01-11T08:19:46;23.55;;;11.52;;
77800;SDS011;66991;50.058;14.454;2024-01-11T08:22:11;31.55;;;12.70;;
77800;SDS011;66991;50.058;14.454;2024-01-11T08:24:37;21.40;;;11.75;;
77800;SDS011;66991;50.058;14.454;2024-01-11T08:27:03;19.67;;;10.55;;
77800;SDS011;66991;50.058;14.454;2024-01-11T08:29:28;37.08;;;14.73;;
77800;SDS011;66991;50.058;14.454;2024-01-11T08:31:54;20.90;;;11.15;;
77800;SDS011;66991;50.058;14.454;2024-01-11T08:34:20;18.38;;;11.00;;
77800;SDS011;66991;50.058;14.454;2024-01-11T08:36:45;13.60;;;9.60;;
77800;SDS011;66991;50.058;14.454;2024-01-11T08:39:11;22.33;;;13.40;;
77800;SDS011;66991;50.058;14.454;2024-01-11T08:41:38;35.03;;;12.45;;
77800;SDS011;66991;50.058;14.454;2024-01-11T08:44:03;21.85;;;13.45;;
77800;SDS011;66991;50.058;14.454;2024-01-11T08:46:30;28.88;;;11.65;;
77800;SDS011;66991;50.058;14.454;2024-01-11T08:48:58;26.25;;;9.80;;
77800;SDS011;66991;50.058;14.454;2024-01-11T08:51:23;22.30;;;10.82;;
77800;SDS011;66991;50.058;14.454;2024-01-11T08:53:49;25.00;;;12.88;;
77800;SDS011;66991;50.058;14.454;2024-01-11T08:56:14;25.00;;;13.13;;
77800;SDS011;66991;50.058;14.454;2024-01-11T08:58:41;15.90;;;9.95;;
77800;SDS011;66991;50.058;14.454;2024-01-11T09:01:07;16.05;;;11.15;;
77800;SDS011;66991;50.058;14.454;2024-01-11T09:03:33;28.23;;;14.02;;
77800;SDS011;66991;50.058;14.454;2024-01-11T09:05:59;22.20;;;11.60;;
77800;SDS011;66991;50.058;14.454;2024-01-11T09:08:24;21.25;;;11.93;;
77800;SDS011;66991;50.058;14.454;2024-01-11T09:10:50;26.67;;;12.18;;
77800;SDS011;66991;50.058;14.454;2024-01-11T09:13:15;21.77;;;13.02;;
77800;SDS011;66991;50.058;14.454;2024-01-11T09:15:41;17.42;;;11.00;;
77800;SDS011;66991;50.058;14.454;2024-01-11T09:18:06;25.95;;;12.13;;
77800;SDS011;66991;50.058;14.454;2024-01-11T09:20:32;46.85;;;15.02;;
77800;SDS011;66991;50.058;14.454;2024-01-11T09:22:58;29.55;;;12.15;;
77800;SDS011;66991;50.058;14.454;2024-01-11T09:25:24;32.03;;;12.40;;
77800;SDS011;66991;50.058;14.454;2024-01-11T09:27:49;42.25;;;15.82;;
77800;SDS011;66991;50.058;14.454;2024-01-11T09:30:14;30.65;;;11.73;;
77800;SDS011;66991;50.058;14.454;2024-01-11T09:32:40;29.08;;;12.65;;
77800;SDS011;66991;50.058;14.454;2024-01-11T09:35:05;34.25;;;12.73;;
77800;SDS011;66991;50.058;14.454;2024-01-11T09:37:30;26.90;;;11.65;;
77800;SDS011;66991;50.058;14.454;2024-01-11T09:39:56;28.92;;;15.50;;
77800;SDS011;66991;50.058;14.454;2024-01-11T09:42:22;27.60;;;13.38;;
77800;SDS011;66991;50.058;14.454;2024-01-11T09:44:47;22.67;;;11.52;;
77800;SDS011;66991;50.058;14.454;2024-01-11T09:47:12;32.53;;;13.88;;
77800;SDS011;66991;50.058;14.454;2024-01-11T09:49:44;32.35;;;13.82;;
77800;SDS011;66991;50.058;14.454;2024-01-11T09:52:11;26.10;;;12.70;;
77800;SDS011;66991;50.058;14.454;2024-01-11T09:54:38;32.25;;;14.32;;
77800;SDS011;66991;50.058;14.454;2024-01-11T09:57:05;32.05;;;14.27;;
77800;SDS011;66991;50.058;14.454;2024-01-11T09:59:31;33.08;;;13.40;;
77800;SDS011;66991;50.058;14.454;2024-01-11T10:01:57;35.30;;;14.10;;
77800;SDS011;66991;50.058;14.454;2024-01-11T10:04:23;29.17;;;14.77;;
77800;SDS011;66991;50.058;14.454;2024-01-11T10:06:49;33.15;;;14.20;;
77800;SDS011;66991;50.058;14.454;2024-01-11T10:09:16;24.65;;;12.23;;
77800;SDS011;66991;50.058;14.454;2024-01-11T10:11:41;32.05;;;14.00;;
77800;SDS011;66991;50.058;14.454;2024-01-11T10:14:06;26.33;;;13.85;;
77800;SDS011;66991;50.058;14.454;2024-01-11T10:16:32;26.83;;;13.95;;
77800;SDS011;66991;50.058;14.454;2024-01-11T10:18:58;26.40;;;13.90;;
77800;SDS011;66991;50.058;14.454;2024-01-11T10:21:23;34.47;;;15.20;;
77800;SDS011;66991;50.058;14.454;2024-01-11T10:23:49;34.00;;;16.30;;
77800;SDS011;66991;50.058;14.454;2024-01-11T10:26:15;36.92;;;14.88;;
77800;SDS011;66991;50.058;14.454;2024-01-11T10:28:45;31.35;;;12.98;;
77800;SDS011;66991;50.058;14.454;2024-01-11T10:31:11;27.48;;;13.23;;
77800;SDS011;66991;50.058;14.454;2024-01-11T10:33:36;30.70;;;14.68;;
77800;SDS011;66991;50.058;14.454;2024-01-11T10:36:02;24.52;;;13.77;;
77800;SDS011;66991;50.058;14.454;2024-01-11T10:38:29;38.95;;;14.88;;
77800;SDS011;66991;50.058;14.454;2024-01-11T10:40:55;37.75;;;14.60;;
77800;SDS011;66991;50.058;14.454;2024-01-11T10:43:24;37.33;;;15.77;;
77800;SDS011;66991;50.058;14.454;2024-01-11T10:45:49;30.90;;;14.88;;
77800;SDS011;66991;50.058;14.454;2024-01-11T10:48:18;28.63;;;13.10;;
77800;SDS011;66991;50.058;14.454;2024-01-11T10:50:46;30.58;;;13.60;;
77800;SDS011;66991;50.058;14.454;2024-01-11T10:55:52;34.60;;;15.85;;
77800;SDS011;66991;50.058;14.454;2024-01-11T10:58:19;29.05;;;14.43;;
77800;SDS011;66991;50.058;14.454;2024-01-11T11:00:46;27.90;;;15.50;;
77800;SDS011;66991;50.058;14.454;2024-01-11T11:03:11;28.05;;;15.23;;
77800;SDS011;66991;50.058;14.454;2024-01-11T11:05:37;43.72;;;17.15;;
77800;SDS011;66991;50.058;14.454;2024-01-11T11:08:03;38.75;;;14.77;;
77800;SDS011;66991;50.058;14.454;2024-01-11T11:10:29;35.47;;;17.10;;
77800;SDS011;66991;50.058;14.454;2024-01-11T11:12:55;32.58;;;14.68;;
77800;SDS011;66991;50.058;14.454;2024-01-11T11:15:24;25.83;;;15.13;;
77800;SDS011;66991;50.058;14.454;2024-01-11T11:17:52;33.95;;;16.75;;
77800;SDS011;66991;50.058;14.454;2024-01-11T11:20:18;43.83;;;14.30;;
77800;SDS011;66991;50.058;14.454;2024-01-11T11:22:43;34.03;;;15.77;;
77800;SDS011;66991;50.058;14.454;2024-01-11T11:25:26;33.88;;;15.30;;
77800;SDS011;66991;50.058;14.454;2024-01-11T11:27:53;37.33;;;15.65;;
77800;SDS011;66991;50.058;14.454;2024-01-11T11:30:18;34.25;;;13.82;;
77800;SDS011;66991;50.058;14.454;2024-01-11T11:32:45;37.17;;;14.90;;
77800;SDS011;66991;50.058;14.454;2024-01-11T11:35:10;32.45;;;14.63;;
77800;SDS011;66991;50.058;14.454;2024-01-11T11:37:36;34.05;;;14.57;;
77800;SDS011;66991;50.058;14.454;2024-01-11T11:40:03;30.55;;;14.32;;
77800;SDS011;66991;50.058;14.454;2024-01-11T11:42:34;39.78;;;16.77;;
77800;SDS011;66991;50.058;14.454;2024-01-11T11:44:59;34.78;;;16.02;;
77800;SDS011;66991;50.058;14.454;2024-01-11T11:47:24;29.30;;;16.45;;
77800;SDS011;66991;50.058;14.454;2024-01-11T11:52:34;36.58;;;16.83;;
77800;SDS011;66991;50.058;14.454;2024-01-11T11:55:01;32.55;;;16.02;;
77800;SDS011;66991;50.058;14.454;2024-01-11T11:57:27;31.85;;;16.20;;
77800;SDS011;66991;50.058;14.454;2024-01-11T11:59:54;40.25;;;15.82;;
77800;SDS011;66991;50.058;14.454;2024-01-11T12:02:21;45.47;;;16.92;;
77800;SDS011;66991;50.058;14.454;2024-01-11T12:04:48;33.63;;;15.10;;
77800;SDS011;66991;50.058;14.454;2024-01-11T12:07:14;39.55;;;17.33;;
77800;SDS011;66991;50.058;14.454;2024-01-11T12:09:40;35.45;;;16.73;;
77800;SDS011;66991;50.058;14.454;2024-01-11T12:12:06;33.45;;;15.38;;
77800;SDS011;66991;50.058;14.454;2024-01-11T12:14:31;22.38;;;12.63;;
77800;SDS011;66991;50.058;14.454;2024-01-11T12:16:57;34.40;;;16.52;;
77800;SDS011;66991;50.058;14.454;2024-01-11T12:19:23;36.30;;;15.98;;
77800;SDS011;66991;50.058;14.454;2024-01-11T12:21:49;36.25;;;17.10;;
77800;SDS011;66991;50.058;14.454;2024-01-11T12:24:15;31.98;;;15.75;;
77800;SDS011;66991;50.058;14.454;2024-01-11T12:26:41;33.05;;;14.82;;
77800;SDS011;66991;50.058;14.454;2024-01-11T12:29:07;35.63;;;17.00;;
77800;SDS011;66991;50.058;14.454;2024-01-11T12:31:34;33.55;;;16.83;;
77800;SDS011;66991;50.058;14.454;2024-01-11T12:34:00;37.20;;;16.45;;
77800;SDS011;66991;50.058;14.454;2024-01-11T12:36:28;33.03;;;15.25;;
77800;SDS011;66991;50.058;14.454;2024-01-11T12:38:54;36.90;;;14.82;;
77800;SDS011;66991;50.058;14.454;2024-01-11T12:41:22;36.75;;;15.20;;
77800;SDS011;66991;50.058;14.454;2024-01-11T12:43:48;34.47;;;15.13;;
77800;SDS011;66991;50.058;14.454;2024-01-11T12:46:13;33.67;;;14.95;;
77800;SDS011;66991;50.058;14.454;2024-01-11T12:48:38;30.17;;;16.83;;
77800;SDS011;66991;50.058;14.454;2024-01-11T12:51:04;34.47;;;16.75;;
77800;SDS011;66991;50.058;14.454;2024-01-11T12:53:30;39.22;;;16.75;;
77800;SDS011;66991;50.058;14.454;2024-01-11T12:56:05;35.17;;;16.65;;
77800;SDS011;66991;50.058;14.454;2024-01-11T12:58:33;29.67;;;15.88;;
77800;SDS011;66991;50.058;14.454;2024-01-11T13:00:58;24.25;;;14.60;;
77800;SDS011;66991;50.058;14.454;2024-01-11T13:03:24;38.60;;;17.30;;
77800;SDS011;66991;50.058;14.454;2024-01-11T13:05:52;29.23;;;15.85;;
77800;SDS011;66991;50.058;14.454;2024-01-11T13:08:17;35.58;;;16.38;;
77800;SDS011;66991;50.058;14.454;2024-01-11T13:10:43;32.42;;;14.70;;
77800;SDS011;66991;50.058;14.454;2024-01-11T13:13:08;28.15;;;16.38;;
77800;SDS011;66991;50.058;14.454;2024-01-11T13:15:33;40.45;;;16.30;;
77800;SDS011;66991;50.058;14.454;2024-01-11T13:17:59;39.83;;;16.60;;
77800;SDS011;66991;50.058;14.454;2024-01-11T13:20:25;35.47;;;15.45;;
77800;SDS011;66991;50.058;14.454;2024-01-11T13:23:11;33.92;;;15.40;;
77800;SDS011;66991;50.058;14.454;2024-01-11T13:25:49;38.72;;;14.82;;
77800;SDS011;66991;50.058;14.454;2024-01-11T13:28:15;34.25;;;15.85;;
77800;SDS011;66991;50.058;14.454;2024-01-11T13:30:41;37.40;;;16.13;;
77800;SDS011;66991;50.058;14.454;2024-01-11T13:33:07;34.55;;;15.10;;
77800;SDS011;66991;50.058;14.454;2024-01-11T13:35:34;43.92;;;16.63;;
77800;SDS011;66991;50.058;14.454;2024-01-11T13:38:02;31.13;;;15.63;;
77800;SDS011;66991;50.058;14.454;2024-01-11T13:40:31;30.50;;;14.85;;
77800;SDS011;66991;50.058;14.454;2024-01-11T13:42:57;31.17;;;14.70;;
77800;SDS011;66991;50.058;14.454;2024-01-11T13:45:23;38.40;;;15.88;;
77800;SDS011;66991;50.058;14.454;2024-01-11T13:47:49;33.72;;;14.93;;
77800;SDS011;66991;50.058;14.454;2024-01-11T13:50:14;34.08;;;15.48;;
77800;SDS011;66991;50.058;14.454;2024-01-11T13:52:41;38.05;;;15.65;;
77800;SDS011;66991;50.058;14.454;2024-01-11T13:55:06;36.35;;;15.55;;
77800;SDS011;66991;50.058;14.454;2024-01-11T13:57:32;34.38;;;15.88;;
77800;SDS011;66991;50.058;14.454;2024-01-11T13:59:59;33.97;;;15.52;;
77800;SDS011;66991;50.058;14.454;2024-01-11T14:02:24;40.95;;;17.77;;
77800;SDS011;66991;50.058;14.454;2024-01-11T14:04:50;36.88;;;14.75;;
77800;SDS011;66991;50.058;14.454;2024-01-11T14:07:15;30.77;;;14.95;;
77800;SDS011;66991;50.058;14.454;2024-01-11T14:09:40;33.58;;;15.52;;
77800;SDS011;66991;50.058;14.454;2024-01-11T14:12:06;32.90;;;14.43;;